Time;durP1;ratioP1;P1;durP2;ratioP2;P2;SDS_P1;SDS_P2;PMS_P1;PMS_P2;Temp;Humidity;BMP_temperature;BMP_pressure;BME280_temperature;BME280_humidity;BME280_pressure;Samples;Min_cycle;Max_cycle;Signal;HPM_P1;HPM_P2
2024/01/27 00:00:05;;;;;;;8.73;4.47;;;;;;;5.20;74.38;99741.88;4968376;28;20066;-74
2024/01/27 00:02:34;;;;;;;13.48;5.32;;;;;;;5.15;74.55;99752.22;4943517;29;20373;-73
2024/01/27 00:04:59;;;;;;;12.60;4.82;;;;;;;5.18;74.61;99765.22;4960977;28;20051;-72
2024/01/27 00:07:27;;;;;;;9.27;4.40;;;;;;;5.09;73.50;99744.09;4946023;28;20063;-72
2024/01/27 00:09:52;;;;;;;7.97;4.32;;;;;;;5.18;73.56;99765.22;4966701;28;20039;-72
2024/01/27 00:12:18;;;;;;;11.30;4.78;;;;;;;5.15;73.65;99754.06;4951532;28;20030;-73
2024/01/27 00:14:44;;;;;;;9.38;4.70;;;;;;;5.16;73.55;99767.22;4955683;28;20431;-73
2024/01/27 00:17:09;;;;;;;13.32;4.53;;;;;;;5.11;73.28;99763.44;4960296;28;20042;-72
2024/01/27 00:19:35;;;;;;;10.10;4.53;;;;;;;5.17;73.76;99774.25;4952327;29;20051;-72
2024/01/27 00:22:00;;;;;;;9.43;4.93;;;;;;;5.13;73.35;99778.28;4971060;28;20027;-73
2024/01/27 00:24:25;;;;;;;11.32;5.05;;;;;;;5.04;73.90;99768.59;4966157;28;20499;-72
2024/01/27 00:26:51;;;;;;;9.80;4.90;;;;;;;5.14;73.64;99790.59;4955228;28;20098;-72
2024/01/27 00:29:16;;;;;;;11.95;5.70;;;;;;;5.10;73.96;99788.44;4960532;28;20039;-74
2024/01/27 00:31:41;;;;;;;10.52;5.22;;;;;;;5.01;74.04;99774.28;4938865;29;20399;-73
2024/01/27 00:34:07;;;;;;;9.70;5.22;;;;;;;5.02;73.85;99783.94;4965961;28;20035;-74
2024/01/27 00:36:32;;;;;;;9.75;5.20;;;;;;;4.90;74.15;99766.66;4944853;28;20058;-74
2024/01/27 00:38:58;;;;;;;11.35;4.97;;;;;;;4.77;74.23;99780.50;4935950;29;20047;-74
2024/01/27 00:41:23;;;;;;;10.32;4.63;;;;;;;4.88;73.78;99784.63;4970484;28;20038;-73
2024/01/27 00:43:48;;;;;;;8.13;4.40;;;;;;;4.76;74.16;99770.00;4973985;28;20565;-74
2024/01/27 00:46:14;;;;;;;8.27;5.03;;;;;;;4.76;74.19;99772.69;4964245;28;20102;-74
2024/01/27 00:48:39;;;;;;;10.00;4.95;;;;;;;4.62;73.99;99757.34;4957984;28;20065;-74
2024/01/27 00:51:05;;;;;;;9.95;4.68;;;;;;;4.82;73.79;99796.84;4963938;28;20541;-73
2024/01/27 00:53:30;;;;;;;10.73;5.07;;;;;;;4.87;72.97;99805.19;4951736;28;20044;-73
2024/01/27 00:55:56;;;;;;;13.15;5.07;;;;;;;4.82;73.22;99788.84;4954146;28;20034;-74
2024/01/27 00:58:21;;;;;;;10.27;4.55;;;;;;;4.82;73.43;99788.84;4970869;28;20039;-73
2024/01/27 01:00:47;;;;;;;16.67;5.05;;;;;;;4.78;73.92;99792.00;4968556;28;20081;-74
2024/01/27 01:03:12;;;;;;;9.93;4.57;;;;;;;4.82;73.71;99790.66;4970783;28;20031;-73
2024/01/27 01:05:37;;;;;;;14.30;5.63;;;;;;;4.83;73.99;99803.03;4967175;28;20487;-72
2024/01/27 01:08:03;;;;;;;9.13;5.22;;;;;;;4.83;73.74;99800.34;4944563;29;20043;-73
2024/01/27 01:10:29;;;;;;;9.55;5.50;;;;;;;4.68;73.85;99786.00;4956294;28;20110;-72
2024/01/27 01:12:54;;;;;;;13.52;4.82;;;;;;;4.59;74.71;99789.69;4955543;28;20031;-72
2024/01/27 01:15:20;;;;;;;11.82;4.78;;;;;;;4.45;74.52;99771.69;4966489;28;20368;-72
2024/01/27 01:17:45;;;;;;;8.80;4.47;;;;;;;4.63;74.52;99804.34;4955780;28;20113;-73
2024/01/27 01:20:11;;;;;;;8.60;4.75;;;;;;;4.56;75.02;99795.34;4935395;29;20086;-75
2024/01/27 01:22:36;;;;;;;11.02;4.30;;;;;;;4.48;74.90;99795.38;4952533;28;20051;-75
2024/01/27 01:25:02;;;;;;;10.98;5.15;;;;;;;4.29;74.81;99755.69;4937526;28;20032;-73
2024/01/27 01:27:27;;;;;;;12.00;4.57;;;;;;;4.43;74.93;99800.34;4958311;28;20042;-75
2024/01/27 01:29:52;;;;;;;11.25;4.75;;;;;;;4.36;74.86;99810.03;4953912;28;20035;-74
2024/01/27 01:32:18;;;;;;;9.52;5.07;;;;;;;4.12;75.41;99784.16;4948909;28;20114;-74
2024/01/27 01:34:45;;;;;;;10.73;4.95;;;;;;;4.38;75.01;99824.84;4959536;28;20023;-75
2024/01/27 01:37:13;;;;;;;10.95;5.28;;;;;;;4.14;75.15;99800.81;4962739;28;20031;-75
2024/01/27 01:39:38;;;;;;;13.55;5.38;;;;;;;4.03;75.59;99804.63;4968312;28;20561;-73
2024/01/27 01:42:04;;;;;;;9.13;5.05;;;;;;;4.18;75.46;99834.97;4950577;28;20072;-74
2024/01/27 01:44:30;;;;;;;10.15;4.88;;;;;;;3.96;75.86;99803.63;4959411;28;20022;-72
2024/01/27 01:46:56;;;;;;;9.48;4.80;;;;;;;4.14;75.96;99836.31;4953922;28;20526;-74
2024/01/27 01:49:22;;;;;;;12.23;5.53;;;;;;;3.95;76.26;99812.59;4958781;28;20023;-74
2024/01/27 01:51:47;;;;;;;15.13;5.50;;;;;;;3.92;76.50;99833.44;4936991;28;20389;-74
2024/01/27 01:54:13;;;;;;;13.57;5.65;;;;;;;3.77;76.84;99819.88;4969052;28;20563;-72
2024/01/27 01:56:38;;;;;;;12.38;5.85;;;;;;;3.81;76.65;99826.56;4955013;28;20035;-72
2024/01/27 01:59:04;;;;;;;14.60;5.50;;;;;;;3.86;76.58;99831.38;4948165;28;20072;-72
2024/01/27 02:01:29;;;;;;;11.38;5.60;;;;;;;3.90;76.73;99841.56;4969483;28;20035;-69
2024/01/27 02:03:55;;;;;;;14.15;6.55;;;;;;;3.86;76.56;99850.88;4963907;28;20174;-71
2024/01/27 02:06:20;;;;;;;12.93;6.07;;;;;;;3.67;76.55;99828.97;4965493;28;20067;-72
2024/01/27 02:08:45;;;;;;;17.88;6.65;;;;;;;3.68;76.27;99834.16;4961752;28;20147;-72
2024/01/27 02:11:11;;;;;;;13.30;6.38;;;;;;;3.79;76.97;99857.84;4969299;28;20039;-71
2024/01/27 02:13:36;;;;;;;14.23;5.57;;;;;;;3.66;77.26;99844.16;4968298;28;20133;-72
2024/01/27 02:16:02;;;;;;;12.95;6.07;;;;;;;3.68;77.70;99847.50;4954394;28;20518;-72
2024/01/27 02:18:27;;;;;;;12.23;5.20;;;;;;;3.67;78.28;99840.47;4951215;28;20042;-72
2024/01/27 02:20:52;;;;;;;12.05;5.28;;;;;;;3.67;78.05;99840.47;4954158;28;20043;-72
2024/01/27 02:23:18;;;;;;;10.73;5.00;;;;;;;3.72;77.98;99845.31;4966851;28;20499;-72
2024/01/27 02:25:43;;;;;;;12.70;5.30;;;;;;;3.87;77.88;99867.72;4952960;28;20031;-71
2024/01/27 02:28:08;;;;;;;14.85;5.63;;;;;;;3.79;77.77;99860.50;4965952;28;20619;-74
2024/01/27 02:30:34;;;;;;;10.20;4.40;;;;;;;3.75;77.51;99859.19;4954504;28;20050;-73
2024/01/27 02:33:00;;;;;;;14.65;5.35;;;;;;;3.82;77.59;99886.84;4964994;28;20027;-74
2024/01/27 02:35:25;;;;;;;12.50;5.45;;;;;;;3.77;77.72;99893.66;4953341;29;20065;-72
2024/01/27 02:37:50;;;;;;;11.25;5.60;;;;;;;3.64;77.85;99888.75;4951993;28;20031;-73
2024/01/27 02:40:16;;;;;;;11.60;5.97;;;;;;;3.63;77.42;99897.75;4964879;28;20043;-72
2024/01/27 02:42:44;;;;;;;12.57;5.97;;;;;;;3.42;77.62;99874.16;4961639;28;20038;-73
2024/01/27 02:45:12;;;;;;;12.60;5.68;;;;;;;3.42;77.79;99878.66;4954359;28;20043;-73
2024/01/27 02:47:38;;;;;;;12.63;5.70;;;;;;;3.50;78.04;99903.47;4968051;28;20019;-73
2024/01/27 02:50:06;;;;;;;13.35;5.32;;;;;;;3.30;77.73;99890.53;4968910;28;20046;-73
2024/01/27 02:52:31;;;;;;;10.32;5.63;;;;;;;3.28;78.41;99895.19;4957179;28;20019;-73
2024/01/27 02:54:57;;;;;;;11.98;5.90;;;;;;;3.22;78.72;99911.81;4953639;28;20031;-73
2024/01/27 02:57:22;;;;;;;12.27;5.90;;;;;;;3.21;78.42;99907.47;4953747;28;20384;-73
2024/01/27 02:59:48;;;;;;;13.32;6.53;;;;;;;3.15;78.92;99908.09;4968918;28;20070;-71
2024/01/27 03:02:14;;;;;;;15.80;5.45;;;;;;;3.16;78.93;99926.56;4965820;28;20031;-71
2024/01/27 03:04:39;;;;;;;10.23;5.78;;;;;;;3.13;78.21;99915.38;4953181;28;20078;-72
2024/01/27 03:07:05;;;;;;;10.30;5.50;;;;;;;2.98;78.90;99904.47;4953428;28;20023;-73
2024/01/27 03:09:30;;;;;;;10.60;5.70;;;;;;;3.00;78.41;99904.31;4956873;28;20038;-72
2024/01/27 03:11:56;;;;;;;13.65;5.95;;;;;;;3.15;78.85;99924.06;4947126;28;20031;-71
2024/01/27 03:14:21;;;;;;;16.90;6.38;;;;;;;3.07;78.90;99916.84;4935443;29;20581;-72
2024/01/27 03:16:47;;;;;;;14.95;6.03;;;;;;;2.97;79.43;99901.94;4956713;28;20047;-72
2024/01/27 03:19:12;;;;;;;17.60;6.22;;;;;;;2.89;79.25;99900.06;4953023;29;20067;-72
2024/01/27 03:21:37;;;;;;;13.05;5.90;;;;;;;2.96;79.34;99902.94;4956158;28;20033;-73
2024/01/27 03:24:04;;;;;;;15.27;6.55;;;;;;;2.97;79.64;99899.28;4964866;28;20039;-73
2024/01/27 03:26:29;;;;;;;10.48;6.00;;;;;;;3.12;79.49;99917.22;4968259;28;20023;-74
2024/01/27 03:28:54;;;;;;;15.85;6.35;;;;;;;3.12;79.48;99908.41;4960174;28;20039;-74
2024/01/27 03:31:20;;;;;;;11.07;5.53;;;;;;;3.16;79.80;99917.72;4958846;28;20078;-74
2024/01/27 03:33:45;;;;;;;14.98;5.50;;;;;;;3.02;79.72;99897.00;4953518;28;20078;-74
2024/01/27 03:36:12;;;;;;;13.80;5.60;;;;;;;3.12;79.91;99916.38;4968887;28;20562;-72
2024/01/27 03:38:39;;;;;;;15.18;7.15;;;;;;;3.08;79.63;99918.50;4954258;28;20066;-72
2024/01/27 03:41:04;;;;;;;14.48;6.03;;;;;;;3.17;79.81;99932.72;4965572;28;20035;-73
2024/01/27 03:43:31;;;;;;;9.73;5.97;;;;;;;3.11;79.40;99928.00;4934611;28;20491;-73
2024/01/27 03:45:59;;;;;;;15.10;6.10;;;;;;;3.04;79.32;99921.63;4954210;28;20140;-72
2024/01/27 03:48:24;;;;;;;13.43;5.90;;;;;;;3.04;79.40;99934.94;4957263;28;20043;-73
2024/01/27 03:50:50;;;;;;;14.85;5.85;;;;;;;2.98;79.13;99927.56;4963476;28;20031;-73
2024/01/27 03:53:15;;;;;;;14.98;6.63;;;;;;;2.99;79.79;99939.91;4954127;28;20050;-72
2024/01/27 03:55:41;;;;;;;12.65;5.90;;;;;;;2.96;79.19;99942.84;4968129;28;20047;-71
2024/01/27 03:58:07;;;;;;;12.73;5.80;;;;;;;2.83;80.08;99948.56;4947938;28;20070;-72
2024/01/27 04:00:33;;;;;;;15.27;6.65;;;;;;;2.83;79.35;99942.38;4945173;29;20418;-74
2024/01/27 04:02:59;;;;;;;16.80;6.53;;;;;;;2.82;79.78;99949.56;4942814;28;20035;-74
2024/01/27 04:05:25;;;;;;;17.23;6.13;;;;;;;2.78;80.34;99953.50;4952569;29;20721;-73
2024/01/27 04:07:51;;;;;;;15.02;6.07;;;;;;;2.66;79.75;99930.78;4958582;28;20039;-73
2024/01/27 04:10:18;;;;;;;12.18;5.65;;;;;;;2.58;79.69;99936.84;4968835;28;20387;-74
2024/01/27 04:12:43;;;;;;;18.98;6.30;;;;;;;2.64;79.86;99936.25;4944584;28;20517;-72
2024/01/27 04:15:10;;;;;;;12.07;5.38;;;;;;;2.76;79.83;99956.31;4955455;28;20105;-74
2024/01/27 04:17:37;;;;;;;13.73;5.97;;;;;;;2.72;79.66;99957.63;4968556;28;20069;-72
2024/01/27 04:20:06;;;;;;;12.00;5.53;;;;;;;2.73;79.49;99966.44;4952748;28;20688;-73
2024/01/27 04:22:33;;;;;;;13.98;5.68;;;;;;;2.67;80.24;99962.53;4954308;28;20499;-73
2024/01/27 04:24:58;;;;;;;15.98;5.93;;;;;;;2.67;79.80;99962.53;4968675;28;20114;-74
2024/01/27 04:27:24;;;;;;;14.02;5.43;;;;;;;2.67;80.32;99972.34;4955401;28;20058;-72
2024/01/27 04:29:49;;;;;;;19.45;6.10;;;;;;;2.63;80.24;99953.19;4962859;28;20031;-70
2024/01/27 04:32:15;;;;;;;15.18;5.93;;;;;;;2.55;79.88;99963.75;4948975;28;20035;-73
2024/01/27 04:34:40;;;;;;;16.48;5.82;;;;;;;2.63;79.88;99984.28;4950895;28;20031;-73
2024/01/27 04:37:06;;;;;;;17.85;6.47;;;;;;;2.37;80.52;99949.59;4962342;28;20495;-72
2024/01/27 04:39:31;;;;;;;13.77;5.90;;;;;;;2.59;80.14;99982.91;4953400;28;20027;-70
2024/01/27 04:41:57;;;;;;;14.18;5.82;;;;;;;2.46;79.83;99959.31;4951610;28;20433;-72
2024/01/27 04:44:22;;;;;;;16.85;6.28;;;;;;;2.56;80.31;99981.38;4953437;28;20106;-73
2024/01/27 04:46:48;;;;;;;12.50;5.20;;;;;;;2.56;80.07;99970.75;4942369;29;20086;-71
2024/01/27 04:49:14;;;;;;;12.43;5.45;;;;;;;2.49;80.54;99963.50;4953413;28;20444;-73
2024/01/27 04:51:40;;;;;;;16.48;5.90;;;;;;;2.53;80.10;99971.03;4951125;28;20061;-70
2024/01/27 04:54:05;;;;;;;15.57;5.30;;;;;;;2.43;79.90;99956.94;4964250;28;20031;-73
2024/01/27 04:56:31;;;;;;;15.80;5.95;;;;;;;2.46;80.86;99971.78;4952976;28;20039;-72
2024/01/27 04:58:56;;;;;;;14.73;5.97;;;;;;;2.36;80.07;99947.91;4963241;28;20575;-71
2024/01/27 05:01:22;;;;;;;19.30;6.30;;;;;;;2.41;80.97;99969.56;4953060;28;20038;-73
2024/01/27 05:03:47;;;;;;;13.68;5.82;;;;;;;2.33;80.83;99969.50;4962162;28;20023;-72
2024/01/27 05:06:13;;;;;;;15.55;6.10;;;;;;;2.20;81.56;99974.28;4956970;28;20065;-72
2024/01/27 05:08:38;;;;;;;15.70;5.35;;;;;;;2.13;81.63;99957.28;4966391;28;20027;-72
2024/01/27 05:11:04;;;;;;;14.82;5.90;;;;;;;2.26;81.51;99972.88;4971603;28;20032;-74
2024/01/27 05:13:29;;;;;;;15.55;6.07;;;;;;;2.19;81.00;99962.00;4971232;28;20475;-74
2024/01/27 05:15:55;;;;;;;16.45;5.38;;;;;;;2.38;81.57;99977.81;4960249;28;20046;-73
2024/01/27 05:18:21;;;;;;;15.18;5.63;;;;;;;2.36;81.71;99974.50;4956217;28;20480;-74
2024/01/27 05:20:46;;;;;;;13.00;5.32;;;;;;;2.42;81.02;99989.00;4961564;28;20035;-72
2024/01/27 05:23:11;;;;;;;15.02;5.20;;;;;;;2.30;81.07;99958.31;4957131;28;20042;-73
2024/01/27 05:25:38;;;;;;;13.30;5.38;;;;;;;2.52;80.51;99993.28;4955900;28;20070;-73
2024/01/27 05:28:04;;;;;;;13.95;5.20;;;;;;;2.39;80.14;99979.50;4968852;28;20117;-73
2024/01/27 05:30:29;;;;;;;15.85;5.65;;;;;;;2.43;80.91;99991.50;4973955;28;20035;-72
2024/01/27 05:32:55;;;;;;;13.25;5.70;;;;;;;2.32;80.92;99986.41;4956735;28;20534;-71
2024/01/27 05:35:20;;;;;;;15.73;5.60;;;;;;;2.35;80.42;99996.75;4955654;28;20121;-72
2024/01/27 05:37:45;;;;;;;20.40;6.68;;;;;;;2.31;80.35;99998.00;4965246;28;20122;-74
2024/01/27 05:40:11;;;;;;;16.80;5.80;;;;;;;2.29;80.73;99996.50;4966917;28;20039;-72
2024/01/27 05:42:37;;;;;;;14.57;5.30;;;;;;;2.26;79.94;100002.97;4955157;29;20035;-73
2024/01/27 05:45:03;;;;;;;14.77;5.63;;;;;;;2.15;80.96;99992.50;4966098;28;20039;-73
2024/01/27 05:47:28;;;;;;;12.57;5.65;;;;;;;2.08;80.63;99986.09;4956183;28;20043;-73
2024/01/27 05:49:54;;;;;;;14.45;5.22;;;;;;;2.02;80.08;99987.53;4961135;28;20043;-72
2024/01/27 05:52:19;;;;;;;11.27;5.65;;;;;;;1.96;79.64;99992.59;4968878;28;20451;-71
2024/01/27 05:54:45;;;;;;;14.10;6.03;;;;;;;2.08;80.18;100023.28;4970708;28;20118;-72
2024/01/27 05:57:10;;;;;;;18.02;6.47;;;;;;;1.97;79.92;100012.84;4955412;28;20034;-72
2024/01/27 05:59:35;;;;;;;16.60;5.78;;;;;;;2.04;80.48;100029.91;4955109;28;20051;-72
2024/01/27 06:02:01;;;;;;;20.27;6.15;;;;;;;1.96;79.78;100027.13;4955152;28;20446;-72
2024/01/27 06:04:27;;;;;;;15.50;6.63;;;;;;;1.94;80.58;100031.72;4971010;28;20695;-72
2024/01/27 06:06:52;;;;;;;66.20;56.70;;;;;;;1.65;80.96;100015.06;4970239;28;20398;-71
2024/01/27 06:09:18;;;;;;;35.50;25.65;;;;;;;1.68;80.37;100026.22;4955875;28;20050;-71
2024/01/27 06:11:43;;;;;;;20.17;10.65;;;;;;;1.63;80.98;100033.78;4955296;28;20029;-72
2024/01/27 06:14:09;;;;;;;23.73;9.48;;;;;;;1.58;80.37;100037.84;4955567;29;20502;-71
2024/01/27 06:16:35;;;;;;;17.60;10.95;;;;;;;1.40;80.34;100019.97;4960230;28;20479;-72
2024/01/27 06:19:01;;;;;;;19.52;10.40;;;;;;;1.45;81.18;100046.09;4955686;28;20098;-73
2024/01/27 06:21:26;;;;;;;18.25;10.15;;;;;;;1.17;82.08;100026.56;4951894;28;20036;-72
2024/01/27 06:23:51;;;;;;;17.73;10.93;;;;;;;1.27;80.76;100031.84;4955281;28;20043;-73
2024/01/27 06:26:17;;;;;;;19.17;11.68;;;;;;;1.26;81.33;100046.94;4955142;28;20019;-73
2024/01/27 06:28:43;;;;;;;21.40;13.65;;;;;;;1.29;80.45;100043.16;4960142;28;20038;-72
2024/01/27 06:31:08;;;;;;;26.13;12.82;;;;;;;1.20;80.80;100036.91;4954367;28;20395;-72
2024/01/27 06:33:34;;;;;;;23.75;13.50;;;;;;;1.29;81.11;100067.91;4954831;28;20043;-72
2024/01/27 06:36:00;;;;;;;25.85;16.55;;;;;;;1.10;81.13;100040.50;4949807;29;20031;-71
2024/01/27 06:38:27;;;;;;;27.27;16.77;;;;;;;1.16;81.06;100058.53;4954563;28;20064;-72
2024/01/27 06:40:52;;;;;;;23.15;11.30;;;;;;;0.97;81.83;100037.31;4952197;28;20035;-73
2024/01/27 06:43:17;;;;;;;19.20;12.20;;;;;;;1.05;82.05;100051.53;4955259;28;20046;-73
2024/01/27 06:45:43;;;;;;;33.83;21.60;;;;;;;0.93;82.63;100050.00;4948241;28;20023;-72
2024/01/27 06:48:08;;;;;;;48.78;31.25;;;;;;;0.92;82.08;100043.03;4955822;28;20121;-71
2024/01/27 06:50:34;;;;;;;41.47;29.92;;;;;;;1.03;82.01;100064.09;4963402;28;20096;-72
2024/01/27 06:53:00;;;;;;;50.10;33.63;;;;;;;1.08;82.06;100075.16;4956996;28;20447;-72
2024/01/27 06:55:26;;;;;;;42.58;30.92;;;;;;;1.00;82.55;100061.75;4960097;28;20037;-72
2024/01/27 06:57:51;;;;;;;40.15;23.63;;;;;;;1.06;81.60;100057.69;4941832;28;20118;-72
2024/01/27 07:00:17;;;;;;;29.88;19.10;;;;;;;1.03;81.52;100056.16;4961276;28;20039;-71
2024/01/27 07:02:43;;;;;;;25.15;14.70;;;;;;;1.12;81.39;100076.53;4956553;28;20090;-70
2024/01/27 07:05:09;;;;;;;29.27;17.65;;;;;;;1.09;81.80;100081.28;4968134;28;20027;-70
2024/01/27 07:07:35;;;;;;;34.28;22.13;;;;;;;1.13;82.08;100082.69;4953040;28;20035;-72
2024/01/27 07:10:00;;;;;;;53.22;32.08;;;;;;;1.04;82.93;100089.66;4939124;29;20023;-71
2024/01/27 07:12:26;;;;;;;38.75;23.38;;;;;;;0.88;82.08;100078.75;4952816;28;20046;-72
2024/01/27 07:14:52;;;;;;;32.58;21.00;;;;;;;0.94;82.50;100077.34;4958884;28;20031;-71
2024/01/27 07:17:17;;;;;;;29.00;17.63;;;;;;;1.12;82.79;100103.06;4958137;28;20082;-70
2024/01/27 07:19:43;;;;;;;25.65;14.95;;;;;;;1.17;82.44;100100.84;4936724;28;20023;-69
2024/01/27 07:22:08;;;;;;;22.15;13.82;;;;;;;1.17;83.13;100100.84;4977502;28;20458;-72
2024/01/27 07:24:34;;;;;;;27.95;15.73;;;;;;;1.21;83.21;100096.94;4963961;28;20034;-73
2024/01/27 07:27:03;;;;;;;27.00;14.88;;;;;;;1.25;82.47;100103.66;4968032;28;20045;-71
2024/01/27 07:29:29;;;;;;;30.85;14.18;;;;;;;1.26;82.22;100110.63;4960558;28;20046;-71
2024/01/27 07:31:55;;;;;;;21.75;12.30;;;;;;;1.34;82.35;100110.78;4953626;28;20042;-70
2024/01/27 07:34:20;;;;;;;20.63;11.73;;;;;;;1.29;82.22;100093.59;4946718;28;20038;-71
2024/01/27 07:36:47;;;;;;;23.50;12.73;;;;;;;1.27;82.46;100091.09;4954127;28;20036;-71
2024/01/27 07:39:13;;;;;;;21.90;12.80;;;;;;;1.31;82.71;100097.78;4954376;28;20106;-72
2024/01/27 07:41:39;;;;;;;26.83;12.27;;;;;;;1.35;82.38;100093.88;4956819;28;20191;-72
2024/01/27 07:44:12;;;;;;;21.17;10.85;;;;;;;1.54;81.92;100116.09;4952549;28;20023;-72
2024/01/27 07:46:39;;;;;;;21.63;9.93;;;;;;;1.59;82.13;100111.22;4953114;28;20471;-72
2024/01/27 07:49:05;;;;;;;39.45;26.33;;;;;;;1.57;82.50;100097.22;4945470;28;20023;-71
2024/01/27 07:51:31;;;;;;;46.17;38.03;;;;;;;1.58;82.86;100099.75;4953051;28;20073;-70
2024/01/27 07:53:56;;;;;;;25.00;17.50;;;;;;;1.52;82.63;100088.88;4932356;29;20090;-72
2024/01/27 07:56:21;;;;;;;32.55;22.67;;;;;;;1.69;82.29;100107.56;4968658;28;20042;-71
2024/01/27 07:58:47;;;;;;;28.33;17.85;;;;;;;1.66;82.41;100101.69;4952280;28;20038;-71
2024/01/27 08:01:16;;;;;;;26.08;15.38;;;;;;;1.78;83.04;100103.22;4952976;29;20086;-71
2024/01/27 08:03:42;;;;;;;22.38;12.13;;;;;;;1.69;82.00;100088.13;4963704;28;20053;-71
2024/01/27 08:06:11;;;;;;;20.52;12.23;;;;;;;1.79;81.66;100102.25;4945887;29;20566;-72
2024/01/27 08:08:36;;;;;;;20.95;13.73;;;;;;;1.94;82.59;100106.97;4945050;28;20175;-72
2024/01/27 08:11:02;;;;;;;23.20;12.85;;;;;;;2.09;83.05;100120.66;4953345;28;20044;-71
2024/01/27 08:13:27;;;;;;;22.05;11.85;;;;;;;2.14;83.00;100106.94;4952153;28;20491;-72
2024/01/27 08:15:52;;;;;;;16.75;11.18;;;;;;;2.13;82.96;100092.78;4968178;28;20073;-72
2024/01/27 08:18:18;;;;;;;20.20;10.35;;;;;;;2.33;82.80;100107.72;4954928;28;20027;-71
2024/01/27 08:20:43;;;;;;;22.30;11.00;;;;;;;2.38;82.12;100121.38;4966863;28;20035;-71
2024/01/27 08:23:09;;;;;;;20.88;10.25;;;;;;;2.40;82.34;100123.91;4964989;28;20526;-71
2024/01/27 08:25:34;;;;;;;17.23;8.85;;;;;;;2.42;81.75;100125.44;4952785;28;20046;-71
2024/01/27 08:27:59;;;;;;;21.98;8.40;;;;;;;2.47;82.32;100119.69;4971804;28;20030;-72
2024/01/27 08:30:25;;;;;;;16.40;7.82;;;;;;;2.47;81.71;100120.53;4953637;28;20034;-70
2024/01/27 08:32:50;;;;;;;17.90;8.60;;;;;;;2.51;81.61;100127.22;4956192;28;20479;-71
2024/01/27 08:35:15;;;;;;;19.63;8.32;;;;;;;2.57;81.75;100129.28;4970126;28;20167;-72
2024/01/27 08:37:41;;;;;;;16.05;8.23;;;;;;;2.51;81.57;100105.97;4953096;28;20146;-72
2024/01/27 08:40:07;;;;;;;18.88;8.73;;;;;;;2.68;81.69;100129.09;4965661;28;20051;-71
2024/01/27 08:42:33;;;;;;;14.43;7.95;;;;;;;2.75;81.29;100130.19;4939399;29;20158;-71
2024/01/27 08:44:58;;;;;;;16.48;7.10;;;;;;;2.66;81.01;100112.47;4961819;28;20109;-72
2024/01/27 08:47:23;;;;;;;16.40;7.70;;;;;;;2.82;81.23;100140.25;4968954;28;20030;-72
2024/01/27 08:49:49;;;;;;;15.65;7.88;;;;;;;2.90;81.19;100140.34;4978557;28;20035;-69
2024/01/27 08:52:14;;;;;;;17.80;7.47;;;;;;;2.82;80.93;100124.28;4957665;28;20050;-72
2024/01/27 08:54:40;;;;;;;17.77;8.93;;;;;;;2.89;80.85;100141.34;4952599;28;20115;-72
2024/01/27 08:57:06;;;;;;;19.80;10.40;;;;;;;2.98;80.98;100153.75;4955261;28;20019;-72
2024/01/27 08:59:31;;;;;;;20.35;10.48;;;;;;;2.96;80.49;100142.44;4956341;28;20039;-72
2024/01/27 09:01:57;;;;;;;17.85;8.85;;;;;;;3.13;80.90;100161.09;4964607;28;20110;-72
2024/01/27 09:04:22;;;;;;;21.60;8.25;;;;;;;2.99;80.75;100126.97;4957477;28;20035;-72
2024/01/27 09:06:47;;;;;;;14.82;6.78;;;;;;;3.08;80.45;100147.38;4973204;28;20019;-72
2024/01/27 09:09:13;;;;;;;16.75;8.18;;;;;;;3.07;80.28;100129.75;4961924;28;20047;-71
2024/01/27 09:11:38;;;;;;;18.00;8.27;;;;;;;3.25;80.43;100153.72;4955330;29;20106;-72
2024/01/27 09:14:07;;;;;;;19.40;9.52;;;;;;;3.22;80.18;100154.88;4972149;28;20154;-72
2024/01/27 09:16:32;;;;;;;16.83;8.45;;;;;;;3.23;80.06;100156.56;4965634;28;20027;-71
2024/01/27 09:18:57;;;;;;;18.05;8.50;;;;;;;3.26;80.13;100150.09;4955290;28;20095;-70
2024/01/27 09:21:27;;;;;;;18.92;8.27;;;;;;;3.24;80.17;100141.41;4970867;28;20051;-71
2024/01/27 09:23:57;;;;;;;15.10;6.82;;;;;;;3.26;79.76;100147.44;4955584;28;20043;-71
2024/01/27 09:26:22;;;;;;;16.83;6.78;;;;;;;3.15;80.08;100135.16;4970777;28;20019;-70
2024/01/27 09:28:53;;;;;;;18.17;7.25;;;;;;;3.34;79.64;100155.50;4959669;28;20109;-71
2024/01/27 09:31:23;;;;;;;16.33;6.72;;;;;;;3.38;79.63;100155.03;4970360;28;20058;-70
2024/01/27 09:33:52;;;;;;;13.60;6.50;;;;;;;3.54;79.38;100166.84;4962497;28;20027;-70
2024/01/27 09:36:18;;;;;;;15.60;7.32;;;;;;;3.49;79.25;100156.66;4965391;28;20491;-70
2024/01/27 09:38:43;;;;;;;16.92;7.20;;;;;;;3.55;79.52;100165.88;4955566;28;20082;-70
2024/01/27 09:41:10;;;;;;;16.13;7.18;;;;;;;3.56;79.18;100157.72;4970562;28;20071;-72
2024/01/27 09:43:37;;;;;;;16.73;7.20;;;;;;;3.75;79.14;100184.22;4956971;28;20116;-72
2024/01/27 09:46:02;;;;;;;18.30;6.53;;;;;;;3.72;78.80;100165.88;4947458;28;20058;-72
2024/01/27 09:48:28;;;;;;;19.05;7.18;;;;;;;3.87;79.03;100175.03;4967307;28;20491;-72
2024/01/27 09:50:54;;;;;;;12.18;6.05;;;;;;;3.88;78.67;100174.00;4962051;28;20035;-70
2024/01/27 09:53:20;;;;;;;16.55;6.55;;;;;;;3.85;78.19;100160.97;4954379;28;20483;-71
2024/01/27 09:55:45;;;;;;;16.90;7.10;;;;;;;3.95;77.60;100175.06;4952183;29;20042;-72
2024/01/27 09:58:11;;;;;;;16.75;6.40;;;;;;;3.94;78.64;100161.91;4958221;28;20435;-72
2024/01/27 10:00:37;;;;;;;15.18;6.50;;;;;;;4.00;78.46;100164.78;4957403;29;20074;-71
2024/01/27 10:03:04;;;;;;;16.92;6.82;;;;;;;4.03;78.33;100144.97;4963157;28;20050;-72
2024/01/27 10:05:31;;;;;;;17.33;6.63;;;;;;;4.12;77.58;100160.91;4963962;28;20042;-72
2024/01/27 10:07:56;;;;;;;20.13;7.15;;;;;;;4.20;77.90;100168.94;4951255;28;20427;-72
2024/01/27 10:10:21;;;;;;;15.90;7.10;;;;;;;4.25;78.22;100157.81;4968027;28;20086;-73
2024/01/27 10:12:48;;;;;;;16.42;6.97;;;;;;;4.22;77.57;100142.13;4953377;28;20046;-72
2024/01/27 10:15:21;;;;;;;17.55;7.97;;;;;;;4.40;77.19;100152.75;4964729;28;20042;-72
2024/01/27 10:17:46;;;;;;;16.73;6.70;;;;;;;4.39;78.37;100156.41;4956069;28;20411;-71
2024/01/27 10:20:15;;;;;;;16.60;5.97;;;;;;;4.46;77.76;100162.78;4962691;28;20031;-72
2024/01/27 10:22:42;;;;;;;15.65;6.18;;;;;;;4.46;77.55;100157.44;4969309;28;20170;-73
2024/01/27 10:25:08;;;;;;;17.38;6.53;;;;;;;4.51;77.77;100161.31;4937550;29;20030;-73
2024/01/27 10:27:33;;;;;;;13.43;6.22;;;;;;;4.57;77.08;100160.69;4950550;28;20051;-71
2024/01/27 10:29:59;;;;;;;18.45;6.72;;;;;;;4.54;77.32;100160.16;4954430;29;20023;-73
2024/01/27 10:32:24;;;;;;;22.10;7.35;;;;;;;4.55;76.66;100165.34;4953317;28;20063;-72
2024/01/27 10:35:10;;;;;;;19.83;6.43;;;;;;;4.51;76.71;100149.81;4946828;28;20047;-72
2024/01/27 10:37:36;;;;;;;17.88;6.70;;;;;;;4.50;76.76;100143.66;4953248;29;20043;-73
2024/01/27 10:40:08;;;;;;;15.23;5.88;;;;;;;4.72;76.94;100159.09;4957584;28;20027;-72
2024/01/27 10:42:35;;;;;;;19.40;7.55;;;;;;;4.67;76.46;100145.41;4953026;29;20041;-72
2024/01/27 10:45:00;;;;;;;18.40;6.43;;;;;;;4.70;76.54;100128.22;4954623;28;20023;-72
2024/01/27 10:47:30;;;;;;;18.02;6.18;;;;;;;4.77;75.78;100131.94;4954497;28;20039;-72
2024/01/27 10:49:59;;;;;;;14.73;6.32;;;;;;;4.81;76.42;100136.78;4959334;28;20073;-72
2024/01/27 10:52:34;;;;;;;15.45;5.95;;;;;;;4.66;76.05;100102.88;4936816;29;20103;-72
2024/01/27 10:55:02;;;;;;;22.33;6.57;;;;;;;4.97;75.62;100141.34;4956155;28;20117;-71
2024/01/27 10:57:29;;;;;;;19.05;6.05;;;;;;;4.87;76.35;100127.31;4937014;29;20031;-72
2024/01/27 10:59:56;;;;;;;14.00;6.50;;;;;;;4.94;75.78;100123.00;4953000;28;20050;-73
2024/01/27 11:02:22;;;;;;;16.35;6.40;;;;;;;5.09;74.90;100134.72;4951967;28;20106;-71
2024/01/27 11:04:53;;;;;;;17.05;6.72;;;;;;;5.01;75.00;100125.88;4946064;28;20447;-72
2024/01/27 11:07:20;;;;;;;15.55;6.00;;;;;;;5.19;74.43;100146.13;4952652;28;20114;-72
2024/01/27 11:09:47;;;;;;;15.63;6.82;;;;;;;5.18;74.90;100140.94;4938669;29;20505;-71
2024/01/27 11:12:13;;;;;;;17.38;6.95;;;;;;;5.31;74.83;100144.81;4953019;28;20033;-72
2024/01/27 11:14:40;;;;;;;15.27;6.07;;;;;;;5.20;74.44;100142.47;4953946;28;20023;-72
2024/01/27 11:17:06;;;;;;;13.57;6.32;;;;;;;5.30;74.99;100136.94;4945013;28;20090;-71
2024/01/27 11:19:33;;;;;;;23.20;7.25;;;;;;;5.40;74.70;100138.50;4950319;28;20023;-73
2024/01/27 11:22:03;;;;;;;19.50;6.43;;;;;;;5.44;74.43;100147.84;4935859;29;20071;-72